Queens Park, United Kingdom
Current Conditions -  °F | °C
As of 1:50 AM on Saturday 22 Nov 2014 (Local Time) from EGWU Reporting Station
Broken Clouds Broken Clouds  
Wind Chill: 50°   Ceiling: 900
Heat Index: 50°   Visibility: 3mi
Dew Point: 48°   Wind: 3mph
Humidity: 94%   Direction: 150°SSE
Pressure: 29.85"   Gusts: NA
Location:  51.55°N, 0.19°W
Report Text: EGWU 220150Z AUTO 15003KT 5000 // BKN009/// 10/09 Q1011
Loading
Personal Weather Stations






























Interactive Weather Map New forecast layout! Learn more

10-Day Weather Forecast

Advertisements
Track Severe Weather on mobile